createdAt,value
2019-03-20T00:00:19.237Z,94.80
2019-03-20T00:02:48.067Z,95.40
2019-03-20T00:05:16.914Z,95.40
2019-03-20T00:07:45.853Z,95.30
2019-03-20T00:10:14.701Z,95.20
2019-03-20T00:12:43.573Z,95.20
2019-03-20T00:15:13.940Z,95.10
2019-03-20T00:17:42.753Z,95.40
2019-03-20T00:20:13.118Z,95.50
2019-03-20T00:22:43.152Z,95.50
2019-03-20T00:25:12.732Z,95.40
2019-03-20T00:27:41.784Z,95.60
2019-03-20T00:30:15.406Z,95.80
2019-03-20T00:32:44.249Z,95.90
2019-03-20T00:35:13.097Z,96.60
2019-03-20T00:37:42.070Z,96.20
2019-03-20T00:40:18.128Z,96.50
2019-03-20T00:42:47.018Z,96.60
2019-03-20T00:45:21.057Z,96.60
2019-03-20T00:47:49.899Z,96.70
2019-03-20T00:50:19.656Z,96.90
2019-03-20T00:52:48.791Z,97.20
2019-03-20T00:55:18.674Z,97.30
2019-03-20T00:57:48.000Z,97.40
2019-03-20T01:00:21.611Z,97.40
2019-03-20T01:02:50.443Z,97.40
2019-03-20T01:05:20.400Z,97.60
2019-03-20T01:07:49.254Z,97.80
2019-03-20T01:10:21.978Z,97.80
2019-03-20T01:12:51.026Z,98.00
2019-03-20T01:15:19.968Z,98.50
2019-03-20T01:17:48.812Z,98.40
2019-03-20T01:20:22.048Z,98.60
2019-03-20T01:22:51.102Z,98.90
2019-03-20T01:25:20.553Z,99.20
2019-03-20T01:27:49.384Z,99.20
2019-03-20T01:30:32.307Z,99.50
2019-03-20T01:33:04.080Z,99.80
2019-03-20T01:35:32.999Z,99.90
2019-03-20T01:38:01.872Z,99.80
2019-03-20T01:40:30.825Z,99.80
2019-03-20T01:42:59.689Z,99.90
2019-03-20T01:45:47.808Z,99.90
2019-03-20T01:48:16.641Z,99.90
2019-03-20T01:50:45.493Z,99.90
2019-03-20T01:53:14.347Z,99.90
2019-03-20T01:55:43.201Z,99.90
2019-03-20T01:58:12.056Z,99.90
2019-03-20T02:00:41.235Z,99.90
2019-03-20T02:03:10.073Z,99.90
2019-03-20T02:05:38.933Z,99.90
2019-03-20T02:08:07.780Z,99.90
2019-03-20T02:10:36.621Z,99.90
2019-03-20T02:13:05.664Z,99.90
2019-03-20T02:15:39.342Z,99.90
2019-03-20T02:18:05.009Z,99.90
2019-03-20T02:20:33.848Z,99.70
2019-03-20T02:23:02.700Z,99.40
2019-03-20T02:25:32.539Z,99.10
2019-03-20T02:28:01.409Z,98.90
2019-03-20T02:30:30.270Z,98.60
2019-03-20T02:32:59.113Z,98.50
2019-03-20T02:35:27.951Z,98.20
2019-03-20T02:37:56.798Z,98.00
2019-03-20T02:40:25.641Z,97.90
2019-03-20T02:42:54.479Z,97.80
2019-03-20T02:45:23.328Z,97.70
2019-03-20T02:47:52.168Z,97.70
2019-03-20T02:50:21.026Z,97.80
2019-03-20T02:52:49.855Z,98.20
2019-03-20T02:55:18.699Z,98.70
2019-03-20T02:57:47.552Z,98.70
2019-03-20T03:00:21.127Z,98.80
2019-03-20T03:02:49.994Z,98.80
2019-03-20T03:05:18.921Z,98.90
2019-03-20T03:07:47.767Z,98.80
2019-03-20T03:10:17.613Z,98.60
2019-03-20T03:12:46.868Z,98.70
2019-03-20T03:15:16.337Z,98.70
2019-03-20T03:17:45.653Z,98.60
2019-03-20T03:20:16.298Z,98.40
2019-03-20T03:22:45.350Z,98.10
2019-03-20T03:25:15.413Z,97.90
2019-03-20T03:27:44.299Z,97.80
2019-03-20T03:30:15.211Z,97.90
2019-03-20T03:32:44.092Z,97.70
2019-03-20T03:35:16.793Z,97.90
2019-03-20T03:37:43.522Z,97.60
2019-03-20T03:40:14.967Z,97.50
2019-03-20T03:42:43.810Z,97.50
2019-03-20T03:45:16.620Z,97.40
2019-03-20T03:47:45.645Z,97.10
2019-03-20T03:50:15.533Z,96.90
2019-03-20T03:52:44.393Z,97.00
2019-03-20T03:55:14.252Z,97.20
2019-03-20T03:57:43.487Z,97.00
2019-03-20T04:00:16.540Z,97.00
2019-03-20T04:02:45.447Z,96.90
2019-03-20T04:05:14.651Z,96.80
2019-03-20T04:07:43.501Z,97.00
2019-03-20T04:10:14.092Z,97.10
2019-03-20T04:12:42.918Z,96.70
2019-03-20T04:15:13.573Z,97.00
2019-03-20T04:17:42.432Z,97.10
2019-03-20T04:20:16.261Z,96.80
2019-03-20T04:22:45.101Z,96.70
2019-03-20T04:25:14.152Z,96.80
2019-03-20T04:27:43.089Z,97.10
2019-03-20T04:30:14.326Z,96.80
2019-03-20T04:32:43.172Z,97.20
2019-03-20T04:35:12.312Z,96.80
2019-03-20T04:37:41.177Z,97.20
2019-03-20T04:40:15.365Z,97.50
2019-03-20T04:42:44.224Z,97.90
2019-03-20T04:45:16.792Z,97.90
2019-03-20T04:47:45.619Z,98.20
2019-03-20T04:50:15.193Z,98.10
2019-03-20T04:52:45.072Z,98.40
2019-03-20T04:55:14.465Z,98.40
2019-03-20T04:57:45.538Z,98.70
2019-03-20T05:00:21.053Z,98.60
2019-03-20T05:02:49.915Z,98.60
2019-03-20T05:05:18.761Z,98.70
2019-03-20T05:07:47.601Z,98.70
2019-03-20T05:10:17.768Z,96.70
2019-03-20T05:12:46.617Z,94.30
2019-03-20T05:15:15.468Z,94.10
2019-03-20T05:17:44.347Z,92.30
2019-03-20T05:20:16.132Z,90.40
2019-03-20T05:22:44.995Z,91.80
2019-03-20T05:25:13.842Z,91.50
2019-03-20T05:27:42.682Z,94.00
2019-03-20T05:30:16.640Z,94.50
2019-03-20T05:32:45.493Z,93.70
2019-03-20T05:35:14.357Z,92.10
2019-03-20T05:37:43.236Z,91.80
2019-03-20T05:40:16.875Z,90.30
2019-03-20T05:42:45.711Z,90.70
2019-03-20T05:45:19.489Z,92.00
2019-03-20T05:47:48.345Z,91.60
2019-03-20T05:50:17.989Z,85.90
2019-03-20T05:52:46.856Z,83.80
2019-03-20T05:55:16.683Z,83.10
2019-03-20T05:57:45.525Z,82.10
2019-03-20T06:00:19.914Z,85.10
2019-03-20T06:02:50.240Z,79.40
2019-03-20T06:05:19.092Z,72.70
2019-03-20T06:07:47.938Z,77.10
2019-03-20T06:10:17.686Z,75.80
2019-03-20T06:12:46.525Z,80.40
2019-03-20T06:15:15.471Z,80.30
2019-03-20T06:17:46.749Z,77.10
2019-03-20T06:20:15.611Z,73.40
2019-03-20T06:22:44.471Z,78.80
2019-03-20T06:25:16.756Z,69.70
2019-03-20T06:27:45.610Z,72.00
2019-03-20T06:30:18.506Z,74.90
2019-03-20T06:32:47.365Z,66.40
2019-03-20T06:35:16.228Z,63.50
2019-03-20T06:37:45.096Z,73.10
2019-03-20T06:40:21.486Z,75.80
2019-03-20T06:42:50.357Z,73.70
2019-03-20T06:45:20.503Z,73.70
2019-03-20T06:47:49.353Z,70.00
2019-03-20T06:50:24.116Z,61.00
2019-03-20T06:52:52.968Z,56.10
2019-03-20T06:55:21.945Z,54.70
2019-03-20T06:57:50.796Z,53.30
2019-03-20T07:00:42.243Z,54.60
2019-03-20T07:03:45.600Z,55.70
2019-03-20T07:06:35.488Z,61.30
2019-03-20T07:09:14.307Z,67.70
2019-03-20T07:11:43.169Z,59.50
2019-03-20T07:14:14.978Z,56.70
2019-03-20T07:16:43.880Z,59.80
2019-03-20T07:19:12.713Z,64.30
2019-03-20T07:21:41.965Z,62.80
2019-03-20T07:24:10.812Z,55.20
2019-03-20T07:26:39.673Z,54.90
2019-03-20T07:29:08.552Z,57.60
2019-03-20T07:31:38.868Z,60.50
2019-03-20T07:34:09.457Z,64.10
2019-03-20T07:36:38.393Z,64.90
2019-03-20T07:39:10.501Z,58.80
2019-03-20T07:41:39.371Z,56.30
2019-03-20T07:44:08.227Z,59.50
2019-03-20T07:46:38.223Z,56.40
2019-03-20T07:49:07.057Z,52.40
2019-03-20T07:51:35.917Z,48.10
2019-03-20T07:54:04.799Z,50.40
2019-03-20T07:56:33.687Z,51.00
2019-03-20T07:59:02.517Z,47.20
2019-03-20T08:01:31.372Z,43.80
2019-03-20T08:04:00.438Z,51.40
2019-03-20T08:06:30.836Z,51.40
2019-03-20T08:08:59.736Z,49.90
2019-03-20T08:11:28.574Z,46.90
2019-03-20T08:13:57.417Z,45.70
2019-03-20T08:16:29.394Z,48.70
2019-03-20T08:18:58.322Z,49.60
2019-03-20T08:21:27.164Z,51.00
2019-03-20T08:23:56.014Z,47.10
2019-03-20T08:26:24.865Z,45.50
2019-03-20T08:28:53.842Z,44.50
2019-03-20T08:31:22.715Z,46.80
2019-03-20T08:33:51.776Z,47.30
2019-03-20T08:36:20.617Z,44.90
2019-03-20T08:38:49.468Z,44.20
2019-03-20T08:41:18.316Z,42.90
2019-03-20T08:43:47.192Z,45.50
2019-03-20T08:46:16.042Z,48.10
2019-03-20T08:48:44.895Z,43.70
2019-03-20T08:51:13.753Z,43.70
2019-03-20T08:53:42.614Z,44.30
2019-03-20T08:56:11.490Z,44.30
2019-03-20T08:58:40.331Z,49.30
2019-03-20T09:01:09.181Z,49.60
2019-03-20T09:03:38.036Z,42.20
2019-03-20T09:06:06.895Z,41.90
2019-03-20T09:08:35.772Z,45.70
2019-03-20T09:11:04.833Z,48.50
2019-03-20T09:13:33.692Z,51.70
2019-03-20T09:16:02.543Z,46.10
2019-03-20T09:18:31.380Z,47.80
2019-03-20T09:21:00.260Z,46.70
2019-03-20T09:23:29.111Z,46.80
2019-03-20T09:25:57.985Z,46.00
2019-03-20T09:28:26.831Z,47.70
2019-03-20T09:30:55.703Z,49.20
2019-03-20T09:33:24.574Z,49.60
2019-03-20T09:35:59.409Z,48.50
2019-03-20T09:38:23.938Z,49.40
2019-03-20T09:40:52.795Z,48.90
2019-03-20T09:43:24.717Z,51.70
2019-03-20T09:45:56.931Z,52.80
2019-03-20T09:48:25.687Z,53.70
2019-03-20T09:50:54.531Z,53.00
2019-03-20T09:53:23.411Z,54.00
2019-03-20T09:55:52.236Z,56.70
2019-03-20T09:58:21.112Z,58.20
2019-03-20T10:00:49.961Z,54.70
2019-03-20T10:03:18.839Z,53.80
2019-03-20T10:05:47.686Z,55.60
2019-03-20T10:08:16.534Z,54.80
2019-03-20T10:10:45.417Z,56.50
2019-03-20T10:13:14.256Z,61.30
2019-03-20T10:15:43.104Z,64.50
2019-03-20T10:18:11.956Z,64.20
2019-03-20T10:20:40.806Z,65.90
2019-03-20T10:23:09.701Z,68.00
2019-03-20T10:25:44.601Z,67.90
2019-03-20T10:28:09.052Z,72.40
2019-03-20T10:30:37.907Z,73.00
2019-03-20T10:33:06.788Z,72.90
2019-03-20T10:35:35.642Z,70.10
2019-03-20T10:38:04.497Z,70.90
2019-03-20T10:40:33.349Z,70.70
2019-03-20T10:43:02.208Z,72.30
2019-03-20T10:45:31.060Z,72.00
2019-03-20T10:47:59.929Z,71.50
2019-03-20T10:50:29.876Z,73.30
2019-03-20T10:52:58.729Z,71.90
2019-03-20T10:55:27.573Z,73.60
2019-03-20T10:57:56.421Z,71.80
2019-03-20T11:00:29.133Z,73.10
2019-03-20T11:02:58.180Z,70.70
2019-03-20T11:05:27.033Z,69.40
2019-03-20T11:07:55.914Z,68.70
2019-03-20T11:10:26.711Z,68.50
2019-03-20T11:12:55.857Z,71.10
2019-03-20T11:15:25.729Z,67.70
2019-03-20T11:17:54.583Z,67.50
2019-03-20T11:20:24.064Z,68.80
2019-03-20T11:22:52.933Z,66.50
2019-03-20T11:25:28.354Z,66.30
2019-03-20T11:27:57.204Z,65.30
2019-03-20T11:30:32.963Z,69.10
2019-03-20T11:33:01.928Z,68.70
2019-03-20T11:35:30.760Z,66.80
2019-03-20T11:37:59.710Z,68.50
2019-03-20T11:40:36.671Z,67.20
2019-03-20T11:43:05.908Z,65.50
2019-03-20T11:45:34.769Z,61.70
2019-03-20T11:48:03.644Z,61.60
2019-03-20T11:50:39.456Z,58.90
2019-03-20T11:53:09.028Z,59.50
2019-03-20T11:55:38.375Z,60.40
2019-03-20T11:58:07.724Z,59.50
2019-03-20T12:00:36.586Z,58.60
2019-03-20T12:03:05.826Z,60.10
2019-03-20T12:05:34.777Z,62.00
2019-03-20T12:08:03.831Z,63.80
2019-03-20T12:10:33.575Z,63.00
2019-03-20T12:13:02.452Z,64.00
2019-03-20T12:15:31.388Z,63.00
2019-03-20T12:18:00.231Z,62.40
2019-03-20T12:20:29.079Z,61.50
2019-03-20T12:22:57.915Z,62.50
2019-03-20T12:25:28.552Z,64.10
2019-03-20T12:27:57.697Z,63.60
2019-03-20T12:30:29.021Z,63.10
2019-03-20T12:32:57.896Z,62.70
2019-03-20T12:35:34.516Z,60.70
2019-03-20T12:38:13.709Z,61.20
2019-03-20T12:40:33.856Z,58.60
2019-03-20T12:43:02.738Z,58.10
2019-03-20T12:45:38.376Z,57.40
2019-03-20T12:48:08.255Z,56.60
2019-03-20T12:50:37.103Z,57.30
2019-03-20T12:53:07.653Z,58.20
2019-03-20T12:55:36.525Z,57.30
2019-03-20T12:58:05.865Z,56.90
2019-03-20T13:00:34.809Z,55.80
2019-03-20T13:03:03.689Z,56.50
2019-03-20T13:05:32.644Z,57.80
2019-03-20T13:08:05.786Z,57.80
2019-03-20T13:10:32.009Z,56.30
2019-03-20T13:13:00.881Z,55.90
2019-03-20T13:15:29.910Z,55.80
2019-03-20T13:17:58.979Z,56.40
2019-03-20T13:20:27.824Z,55.90
2019-03-20T13:23:11.580Z,56.80
2019-03-20T13:25:41.881Z,56.60
2019-03-20T13:28:10.740Z,56.70
2019-03-20T13:30:54.696Z,56.80
2019-03-20T13:33:25.888Z,57.80
2019-03-20T13:35:54.091Z,59.20
2019-03-20T13:38:22.942Z,56.40
2019-03-20T13:40:53.392Z,55.80
2019-03-20T13:43:22.236Z,55.80
2019-03-20T13:45:51.073Z,55.60
2019-03-20T13:48:19.953Z,55.70
2019-03-20T13:50:48.809Z,56.00
2019-03-20T13:53:18.983Z,55.50
2019-03-20T13:55:50.550Z,56.20
2019-03-20T13:58:19.373Z,55.50
2019-03-20T14:00:48.218Z,55.70
2019-03-20T14:03:17.064Z,56.40
2019-03-20T14:05:47.522Z,56.30
2019-03-20T14:08:16.390Z,56.30
2019-03-20T14:10:50.265Z,57.70
2019-03-20T14:13:16.375Z,57.70
2019-03-20T14:15:45.225Z,58.30
2019-03-20T14:18:14.104Z,58.30
2019-03-20T14:20:42.954Z,57.80
2019-03-20T14:23:12.902Z,58.70
2019-03-20T14:25:41.772Z,59.30
2019-03-20T14:28:10.621Z,59.90
2019-03-20T14:30:39.480Z,59.90
2019-03-20T14:33:08.341Z,61.80
2019-03-20T14:35:37.198Z,61.50
2019-03-20T14:38:06.098Z,62.00
2019-03-20T14:40:38.002Z,61.30
2019-03-20T14:43:06.954Z,61.90
2019-03-20T14:45:35.901Z,63.50
2019-03-20T14:48:04.752Z,63.60
2019-03-20T14:50:36.277Z,64.20
2019-03-20T14:53:04.557Z,63.70
2019-03-20T14:55:33.413Z,63.40
2019-03-20T14:58:02.869Z,64.30
2019-03-20T15:00:32.219Z,63.90
2019-03-20T15:03:01.164Z,64.00
2019-03-20T15:05:30.052Z,65.00
2019-03-20T15:07:58.919Z,65.20
2019-03-20T15:10:28.495Z,66.40
2019-03-20T15:12:57.646Z,67.30
2019-03-20T15:15:53.937Z,67.90
2019-03-20T15:18:22.784Z,68.20
2019-03-20T15:20:51.638Z,68.60
2019-03-20T15:23:20.537Z,67.60
2019-03-20T15:25:49.380Z,68.20
2019-03-20T15:28:18.232Z,68.30
2019-03-20T15:30:47.110Z,68.60
2019-03-20T15:33:15.965Z,69.00
2019-03-20T15:35:45.982Z,69.30
2019-03-20T15:38:14.864Z,69.70
2019-03-20T15:40:43.708Z,70.30
2019-03-20T15:43:12.589Z,71.20
2019-03-20T15:45:41.480Z,72.20
2019-03-20T15:48:10.324Z,72.80
2019-03-20T15:50:39.197Z,73.70
2019-03-20T15:53:08.061Z,75.00
2019-03-20T15:55:40.985Z,74.40
2019-03-20T15:58:09.837Z,74.80
2019-03-20T16:00:38.704Z,77.40
2019-03-20T16:03:22.136Z,78.20
2019-03-20T16:05:50.982Z,76.90
2019-03-20T16:08:20.026Z,76.20
2019-03-20T16:10:48.865Z,76.50
2019-03-20T16:13:17.718Z,74.90
2019-03-20T16:15:46.569Z,75.30
2019-03-20T16:18:15.432Z,75.20
2019-03-20T16:20:44.284Z,76.10
2019-03-20T16:23:13.127Z,77.10
2019-03-20T16:25:42.000Z,77.50
2019-03-20T16:28:10.871Z,78.60
2019-03-20T16:30:39.725Z,77.90
2019-03-20T16:33:08.569Z,78.20
2019-03-20T16:35:37.421Z,78.70
2019-03-20T16:38:07.140Z,78.40
2019-03-20T16:40:36.944Z,79.60
2019-03-20T16:43:05.888Z,79.30
2019-03-20T16:45:37.962Z,81.20
2019-03-20T16:48:07.145Z,82.80
2019-03-20T16:50:36.007Z,84.50
2019-03-20T16:53:05.649Z,88.00
2019-03-20T16:55:34.485Z,89.80
2019-03-20T16:58:03.344Z,91.10
2019-03-20T17:00:32.916Z,91.50
2019-03-20T17:03:02.161Z,92.00
2019-03-20T17:05:31.511Z,92.70
2019-03-20T17:08:00.362Z,92.90
2019-03-20T17:10:34.824Z,94.00
2019-03-20T17:13:03.859Z,94.60
2019-03-20T17:15:34.577Z,94.70
2019-03-20T17:18:03.565Z,95.00
2019-03-20T17:20:32.447Z,95.60
2019-03-20T17:23:01.306Z,95.90
2019-03-20T17:25:30.154Z,96.00
2019-03-20T17:27:58.991Z,96.00
2019-03-20T17:30:29.948Z,96.00
2019-03-20T17:32:58.809Z,96.50
2019-03-20T17:35:27.778Z,96.50
2019-03-20T17:37:56.626Z,96.80
2019-03-20T17:40:27.070Z,96.90
2019-03-20T17:42:55.923Z,97.00
2019-03-20T17:45:29.588Z,97.20
2019-03-20T17:47:58.557Z,97.30
2019-03-20T17:50:34.388Z,97.60
2019-03-20T17:53:03.662Z,97.80
2019-03-20T17:55:32.503Z,98.10
2019-03-20T17:58:01.348Z,98.40
2019-03-20T18:00:47.889Z,98.00
2019-03-20T18:03:16.742Z,98.20
2019-03-20T18:05:45.613Z,98.40
2019-03-20T18:08:14.471Z,98.60
2019-03-20T18:10:43.325Z,98.90
2019-03-20T18:13:12.168Z,98.70
2019-03-20T18:15:41.015Z,98.90
2019-03-20T18:18:09.852Z,98.60
2019-03-20T18:20:39.000Z,98.80
2019-03-20T18:23:08.483Z,98.80
2019-03-20T18:25:37.341Z,99.20
2019-03-20T18:28:08.822Z,99.00
2019-03-20T18:30:44.244Z,99.00
2019-03-20T18:33:13.127Z,98.90
2019-03-20T18:35:41.962Z,99.30
2019-03-20T18:38:11.049Z,99.20
2019-03-20T18:40:39.885Z,99.10
2019-03-20T18:43:08.733Z,99.10
2019-03-20T18:45:37.623Z,99.40
2019-03-20T18:48:06.458Z,99.10
2019-03-20T18:50:35.335Z,98.90
2019-03-20T18:53:04.450Z,98.80
2019-03-20T18:55:33.284Z,98.60
2019-03-20T18:58:02.275Z,98.80
2019-03-20T19:00:35.052Z,99.20
2019-03-20T19:03:15.693Z,99.70
2019-03-20T19:06:02.896Z,99.90
2019-03-20T19:08:33.987Z,99.90
2019-03-20T19:11:02.955Z,99.90
2019-03-20T19:13:31.867Z,99.90
2019-03-20T19:16:00.733Z,99.90
2019-03-20T19:18:29.609Z,99.90
2019-03-20T19:20:59.495Z,99.90
2019-03-20T19:23:28.804Z,99.90
2019-03-20T19:25:58.197Z,99.90
2019-03-20T19:28:27.390Z,99.90
2019-03-20T19:30:56.264Z,99.90
2019-03-20T19:33:39.696Z,99.90
2019-03-20T19:36:08.953Z,99.90
2019-03-20T19:38:37.936Z,99.90
2019-03-20T19:41:08.834Z,99.90
2019-03-20T19:43:37.314Z,99.90
2019-03-20T19:46:07.698Z,99.90
2019-03-20T19:48:36.559Z,99.90
2019-03-20T19:51:05.656Z,99.90
2019-03-20T19:53:34.560Z,99.90
2019-03-20T19:56:03.422Z,99.90
2019-03-20T19:58:32.275Z,99.90
2019-03-20T20:01:01.130Z,99.90
2019-03-20T20:03:30.000Z,99.90
2019-03-20T20:05:58.876Z,99.90
2019-03-20T20:08:27.725Z,99.90
2019-03-20T20:10:56.581Z,99.90
2019-03-20T20:13:25.520Z,99.90
2019-03-20T20:15:54.479Z,99.90
2019-03-20T20:18:23.419Z,99.90
2019-03-20T20:20:52.257Z,99.90
2019-03-20T20:23:21.115Z,99.90
2019-03-20T20:25:50.016Z,99.90
2019-03-20T20:28:19.266Z,99.90
2019-03-20T20:30:48.119Z,99.90
2019-03-20T20:33:18.540Z,99.90
2019-03-20T20:35:48.563Z,99.90
2019-03-20T20:38:18.827Z,99.90
2019-03-20T20:40:47.895Z,99.90
2019-03-20T20:43:16.759Z,99.90
2019-03-20T20:45:45.642Z,99.90
2019-03-20T20:48:14.485Z,99.90
2019-03-20T20:50:44.239Z,99.90
2019-03-20T20:53:13.091Z,99.90
2019-03-20T20:55:42.174Z,99.90
2019-03-20T20:58:11.027Z,99.90
2019-03-20T21:00:39.929Z,99.90
2019-03-20T21:03:08.790Z,99.90
2019-03-20T21:05:37.981Z,99.90
2019-03-20T21:08:06.885Z,99.90
2019-03-20T21:10:35.781Z,99.90
2019-03-20T21:13:04.634Z,99.90
2019-03-20T21:15:38.909Z,99.90
2019-03-20T21:18:16.688Z,99.90
2019-03-20T21:20:47.377Z,99.90
2019-03-20T21:23:38.876Z,99.90
2019-03-20T21:26:09.030Z,99.90
2019-03-20T21:29:14.259Z,99.90
2019-03-20T21:31:57.930Z,99.90
2019-03-20T21:34:47.477Z,99.90
2019-03-20T21:37:34.428Z,99.90
2019-03-20T21:40:04.417Z,99.90
2019-03-20T21:42:36.329Z,99.90
2019-03-20T21:45:10.881Z,99.90
2019-03-20T21:47:38.959Z,99.90
2019-03-20T21:50:25.760Z,99.90
2019-03-20T21:52:54.642Z,99.90
2019-03-20T21:55:26.434Z,99.90
2019-03-20T21:58:10.312Z,99.90
2019-03-20T22:00:50.820Z,99.90
2019-03-20T22:03:19.716Z,99.90
2019-03-20T22:06:06.571Z,99.90
2019-03-20T22:08:35.458Z,99.90
2019-03-20T22:11:23.910Z,99.90
2019-03-20T22:13:55.831Z,99.90
2019-03-20T22:16:53.368Z,99.90
2019-03-20T22:19:51.271Z,99.90
2019-03-20T22:22:44.054Z,99.80
2019-03-20T22:25:16.527Z,99.80
2019-03-20T22:28:13.886Z,99.70
2019-03-20T22:30:42.774Z,99.90
2019-03-20T22:33:48.004Z,99.90
2019-03-20T22:36:16.921Z,99.80
2019-03-20T22:39:09.552Z,99.90
2019-03-20T22:41:53.132Z,99.80
2019-03-20T22:44:22.149Z,99.80
2019-03-20T22:47:26.088Z,99.70
2019-03-20T22:50:03.350Z,99.90
2019-03-20T22:52:54.568Z,99.80
2019-03-20T22:55:38.313Z,99.80
2019-03-20T22:58:26.429Z,99.90
2019-03-20T23:00:57.964Z,99.90
2019-03-20T23:03:35.660Z,99.90
2019-03-20T23:06:05.715Z,99.90
2019-03-20T23:08:34.856Z,99.90
2019-03-20T23:11:03.739Z,99.90
2019-03-20T23:13:40.965Z,99.90
2019-03-20T23:16:03.594Z,99.90
2019-03-20T23:18:33.648Z,99.90
2019-03-20T23:21:02.490Z,99.90
2019-03-20T23:23:33.068Z,99.90
2019-03-20T23:26:01.916Z,99.90
2019-03-20T23:28:30.756Z,99.90
2019-03-20T23:30:59.644Z,99.90
2019-03-20T23:33:29.965Z,99.90
2019-03-20T23:35:59.429Z,99.90
2019-03-20T23:38:28.759Z,99.90
2019-03-20T23:40:57.652Z,99.90
2019-03-20T23:43:26.538Z,99.90
2019-03-20T23:45:55.432Z,99.90
2019-03-20T23:48:39.464Z,99.90
2019-03-20T23:51:13.900Z,99.90
2019-03-20T23:53:45.578Z,99.90
2019-03-20T23:56:14.438Z,99.90
2019-03-20T23:58:43.316Z,99.90
